sensor_id;sensor_type;location;lat;lon;timestamp;P1;durP1;ratioP1;P2;durP2;ratioP2
14231;SDS011;7200;52.194;9.900;2022-10-31T00:00:49;0.53;;;0.53;;
14231;SDS011;7200;52.194;9.900;2022-10-31T00:03:15;0.50;;;0.50;;
14231;SDS011;7200;52.194;9.900;2022-10-31T00:05:45;8.43;;;0.80;;
14231;SDS011;7200;52.194;9.900;2022-10-31T00:08:12;0.10;;;0.10;;
14231;SDS011;7200;52.194;9.900;2022-10-31T00:10:38;0.70;;;0.70;;
14231;SDS011;7200;52.194;9.900;2022-10-31T00:13:08;2.93;;;0.53;;
14231;SDS011;7200;52.194;9.900;2022-10-31T00:15:34;0.53;;;0.43;;
14231;SDS011;7200;52.194;9.900;2022-10-31T00:18:01;1.50;;;0.77;;
14231;SDS011;7200;52.194;9.900;2022-10-31T00:20:27;4.73;;;1.27;;
14231;SDS011;7200;52.194;9.900;2022-10-31T00:22:52;1.27;;;1.10;;
14231;SDS011;7200;52.194;9.900;2022-10-31T00:25:17;0.60;;;0.60;;
14231;SDS011;7200;52.194;9.900;2022-10-31T00:27:43;1.03;;;0.80;;
14231;SDS011;7200;52.194;9.900;2022-10-31T00:30:08;3.57;;;1.33;;
14231;SDS011;7200;52.194;9.900;2022-10-31T00:32:34;2.47;;;1.67;;
14231;SDS011;7200;52.194;9.900;2022-10-31T00:34:59;0.77;;;0.77;;
14231;SDS011;7200;52.194;9.900;2022-10-31T00:37:24;0.93;;;0.93;;
14231;SDS011;7200;52.194;9.900;2022-10-31T00:39:49;0.50;;;0.50;;
14231;SDS011;7200;52.194;9.900;2022-10-31T00:42:15;1.50;;;1.27;;
14231;SDS011;7200;52.194;9.900;2022-10-31T00:44:40;4.63;;;1.70;;
14231;SDS011;7200;52.194;9.900;2022-10-31T00:47:05;4.10;;;2.30;;
14231;SDS011;7200;52.194;9.900;2022-10-31T00:49:31;1.27;;;0.70;;
14231;SDS011;7200;52.194;9.900;2022-10-31T00:51:56;2.73;;;1.33;;
14231;SDS011;7200;52.194;9.900;2022-10-31T00:54:21;0.60;;;0.60;;
14231;SDS011;7200;52.194;9.900;2022-10-31T00:56:47;2.80;;;1.70;;
14231;SDS011;7200;52.194;9.900;2022-10-31T00:59:12;2.70;;;1.60;;
14231;SDS011;7200;52.194;9.900;2022-10-31T01:01:37;0.73;;;0.67;;
14231;SDS011;7200;52.194;9.900;2022-10-31T01:04:02;5.57;;;3.40;;
14231;SDS011;7200;52.194;9.900;2022-10-31T01:06:28;2.10;;;1.87;;
14231;SDS011;7200;52.194;9.900;2022-10-31T01:08:53;1.60;;;1.27;;
14231;SDS011;7200;52.194;9.900;2022-10-31T01:11:19;17.90;;;3.27;;
14231;SDS011;7200;52.194;9.900;2022-10-31T01:13:46;2.80;;;2.43;;
14231;SDS011;7200;52.194;9.900;2022-10-31T01:16:17;2.40;;;2.13;;
14231;SDS011;7200;52.194;9.900;2022-10-31T01:18:44;10.63;;;2.10;;
14231;SDS011;7200;52.194;9.900;2022-10-31T01:21:20;2.27;;;2.10;;
14231;SDS011;7200;52.194;9.900;2022-10-31T01:23:47;15.73;;;3.50;;
14231;SDS011;7200;52.194;9.900;2022-10-31T01:26:17;5.27;;;2.47;;
14231;SDS011;7200;52.194;9.900;2022-10-31T01:28:48;16.07;;;2.87;;
14231;SDS011;7200;52.194;9.900;2022-10-31T01:31:17;1.63;;;0.83;;
14231;SDS011;7200;52.194;9.900;2022-10-31T01:33:43;8.23;;;3.67;;
14231;SDS011;7200;52.194;9.900;2022-10-31T01:38:37;3.27;;;2.07;;
14231;SDS011;7200;52.194;9.900;2022-10-31T01:41:03;2.40;;;1.63;;
14231;SDS011;7200;52.194;9.900;2022-10-31T01:46:16;7.23;;;2.80;;
14231;SDS011;7200;52.194;9.900;2022-10-31T01:48:45;3.40;;;2.30;;
14231;SDS011;7200;52.194;9.900;2022-10-31T01:51:11;7.93;;;2.13;;
14231;SDS011;7200;52.194;9.900;2022-10-31T01:53:39;3.37;;;1.40;;
14231;SDS011;7200;52.194;9.900;2022-10-31T01:56:06;3.07;;;2.47;;
14231;SDS011;7200;52.194;9.900;2022-10-31T01:58:32;1.87;;;1.50;;
14231;SDS011;7200;52.194;9.900;2022-10-31T02:00:58;7.63;;;2.93;;
14231;SDS011;7200;52.194;9.900;2022-10-31T02:03:26;9.00;;;5.87;;
14231;SDS011;7200;52.194;9.900;2022-10-31T02:05:54;11.03;;;5.73;;
14231;SDS011;7200;52.194;9.900;2022-10-31T02:08:23;9.33;;;5.63;;
14231;SDS011;7200;52.194;9.900;2022-10-31T02:10:51;2.10;;;1.90;;
14231;SDS011;7200;52.194;9.900;2022-10-31T02:13:17;6.90;;;4.50;;
14231;SDS011;7200;52.194;9.900;2022-10-31T02:15:44;7.70;;;5.63;;
14231;SDS011;7200;52.194;9.900;2022-10-31T02:18:13;12.20;;;6.93;;
14231;SDS011;7200;52.194;9.900;2022-10-31T02:20:47;27.37;;;9.30;;
14231;SDS011;7200;52.194;9.900;2022-10-31T02:29:52;7.40;;;4.27;;
14231;SDS011;7200;52.194;9.900;2022-10-31T02:32:46;11.70;;;6.93;;
14231;SDS011;7200;52.194;9.900;2022-10-31T02:40:37;1.33;;;1.03;;
14231;SDS011;7200;52.194;9.900;2022-10-31T02:46:01;18.67;;;8.17;;
14231;SDS011;7200;52.194;9.900;2022-10-31T02:48:33;4.67;;;3.80;;
14231;SDS011;7200;52.194;9.900;2022-10-31T02:51:01;3.57;;;2.77;;
14231;SDS011;7200;52.194;9.900;2022-10-31T02:53:32;12.17;;;6.50;;
14231;SDS011;7200;52.194;9.900;2022-10-31T02:56:00;10.37;;;3.67;;
14231;SDS011;7200;52.194;9.900;2022-10-31T02:58:31;4.33;;;3.40;;
14231;SDS011;7200;52.194;9.900;2022-10-31T03:09:25;4.53;;;1.60;;
14231;SDS011;7200;52.194;9.900;2022-10-31T03:12:01;5.67;;;3.13;;
14231;SDS011;7200;52.194;9.900;2022-10-31T03:14:40;2.53;;;2.37;;
14231;SDS011;7200;52.194;9.900;2022-10-31T03:17:08;0.33;;;0.33;;
14231;SDS011;7200;52.194;9.900;2022-10-31T03:19:44;0.30;;;0.30;;
14231;SDS011;7200;52.194;9.900;2022-10-31T03:22:15;0.23;;;0.23;;
14231;SDS011;7200;52.194;9.900;2022-10-31T03:24:44;1.70;;;1.60;;
14231;SDS011;7200;52.194;9.900;2022-10-31T03:27:12;0.87;;;0.87;;
14231;SDS011;7200;52.194;9.900;2022-10-31T03:29:40;1.53;;;1.43;;
14231;SDS011;7200;52.194;9.900;2022-10-31T03:32:08;0.73;;;0.73;;
14231;SDS011;7200;52.194;9.900;2022-10-31T03:34:40;2.77;;;0.87;;
14231;SDS011;7200;52.194;9.900;2022-10-31T03:37:08;1.03;;;1.03;;
14231;SDS011;7200;52.194;9.900;2022-10-31T03:39:36;4.80;;;1.37;;
14231;SDS011;7200;52.194;9.900;2022-10-31T03:44:36;2.03;;;1.93;;
14231;SDS011;7200;52.194;9.900;2022-10-31T03:47:05;0.10;;;0.10;;
14231;SDS011;7200;52.194;9.900;2022-10-31T03:49:31;3.73;;;0.63;;
14231;SDS011;7200;52.194;9.900;2022-10-31T03:51:59;0.67;;;0.67;;
14231;SDS011;7200;52.194;9.900;2022-10-31T03:54:45;0.90;;;0.90;;
14231;SDS011;7200;52.194;9.900;2022-10-31T03:57:21;0.67;;;0.67;;
14231;SDS011;7200;52.194;9.900;2022-10-31T04:00:03;1.23;;;1.23;;
14231;SDS011;7200;52.194;9.900;2022-10-31T04:02:32;0.87;;;0.87;;
14231;SDS011;7200;52.194;9.900;2022-10-31T04:05:00;0.20;;;0.10;;
14231;SDS011;7200;52.194;9.900;2022-10-31T04:07:27;0.60;;;0.20;;
14231;SDS011;7200;52.194;9.900;2022-10-31T04:09:57;4.70;;;4.30;;
14231;SDS011;7200;52.194;9.900;2022-10-31T04:12:25;3.40;;;3.10;;
14231;SDS011;7200;52.194;9.900;2022-10-31T04:14:52;14.40;;;6.23;;
14231;SDS011;7200;52.194;9.900;2022-10-31T04:17:19;4.70;;;3.27;;
14231;SDS011;7200;52.194;9.900;2022-10-31T04:19:48;11.70;;;4.83;;
14231;SDS011;7200;52.194;9.900;2022-10-31T04:22:13;12.63;;;5.10;;
14231;SDS011;7200;52.194;9.900;2022-10-31T04:24:39;7.30;;;5.03;;
14231;SDS011;7200;52.194;9.900;2022-10-31T04:27:05;9.00;;;4.27;;
14231;SDS011;7200;52.194;9.900;2022-10-31T04:29:30;10.40;;;6.13;;
14231;SDS011;7200;52.194;9.900;2022-10-31T04:31:56;10.20;;;4.50;;
14231;SDS011;7200;52.194;9.900;2022-10-31T04:34:21;2.10;;;1.37;;
14231;SDS011;7200;52.194;9.900;2022-10-31T04:36:46;5.83;;;2.23;;
14231;SDS011;7200;52.194;9.900;2022-10-31T04:39:12;2.20;;;2.10;;
14231;SDS011;7200;52.194;9.900;2022-10-31T04:41:37;1.63;;;1.60;;
14231;SDS011;7200;52.194;9.900;2022-10-31T04:44:02;1.37;;;1.37;;
14231;SDS011;7200;52.194;9.900;2022-10-31T04:46:28;1.53;;;1.43;;
14231;SDS011;7200;52.194;9.900;2022-10-31T04:48:53;2.20;;;1.67;;
14231;SDS011;7200;52.194;9.900;2022-10-31T04:51:18;9.07;;;3.37;;
14231;SDS011;7200;52.194;9.900;2022-10-31T04:53:43;1.77;;;1.67;;
14231;SDS011;7200;52.194;9.900;2022-10-31T04:56:09;16.30;;;1.20;;
14231;SDS011;7200;52.194;9.900;2022-10-31T04:58:34;0.00;;;0.00;;
14231;SDS011;7200;52.194;9.900;2022-10-31T05:00:59;1.27;;;1.27;;
14231;SDS011;7200;52.194;9.900;2022-10-31T05:03:25;2.33;;;2.23;;
14231;SDS011;7200;52.194;9.900;2022-10-31T05:05:50;1.60;;;1.40;;
14231;SDS011;7200;52.194;9.900;2022-10-31T05:08:15;1.70;;;1.60;;
14231;SDS011;7200;52.194;9.900;2022-10-31T05:10:41;0.30;;;0.30;;
14231;SDS011;7200;52.194;9.900;2022-10-31T05:13:06;0.50;;;0.50;;
14231;SDS011;7200;52.194;9.900;2022-10-31T05:15:32;0.10;;;0.10;;
14231;SDS011;7200;52.194;9.900;2022-10-31T05:17:57;0.00;;;0.00;;
14231;SDS011;7200;52.194;9.900;2022-10-31T05:20:24;0.00;;;0.00;;
14231;SDS011;7200;52.194;9.900;2022-10-31T05:22:52;0.10;;;0.10;;
14231;SDS011;7200;52.194;9.900;2022-10-31T05:25:21;0.23;;;0.23;;
14231;SDS011;7200;52.194;9.900;2022-10-31T05:27:48;0.10;;;0.10;;
14231;SDS011;7200;52.194;9.900;2022-10-31T05:30:15;0.60;;;0.60;;
14231;SDS011;7200;52.194;9.900;2022-10-31T05:32:47;0.27;;;0.20;;
14231;SDS011;7200;52.194;9.900;2022-10-31T05:35:15;0.37;;;0.37;;
14231;SDS011;7200;52.194;9.900;2022-10-31T05:37:42;0.00;;;0.00;;
14231;SDS011;7200;52.194;9.900;2022-10-31T05:40:08;0.00;;;0.00;;
14231;SDS011;7200;52.194;9.900;2022-10-31T05:42:35;0.43;;;0.43;;
14231;SDS011;7200;52.194;9.900;2022-10-31T05:45:00;0.13;;;0.13;;
14231;SDS011;7200;52.194;9.900;2022-10-31T05:47:25;0.00;;;0.00;;
14231;SDS011;7200;52.194;9.900;2022-10-31T05:49:51;0.00;;;0.00;;
14231;SDS011;7200;52.194;9.900;2022-10-31T05:52:16;0.97;;;0.97;;
14231;SDS011;7200;52.194;9.900;2022-10-31T05:54:42;0.57;;;0.57;;
14231;SDS011;7200;52.194;9.900;2022-10-31T05:57:08;0.10;;;0.10;;
14231;SDS011;7200;52.194;9.900;2022-10-31T05:59:33;0.00;;;0.00;;
14231;SDS011;7200;52.194;9.900;2022-10-31T06:01:58;0.00;;;0.00;;
14231;SDS011;7200;52.194;9.900;2022-10-31T06:04:24;0.07;;;0.07;;
14231;SDS011;7200;52.194;9.900;2022-10-31T06:06:49;0.70;;;0.70;;
14231;SDS011;7200;52.194;9.900;2022-10-31T06:09:14;0.00;;;0.00;;
14231;SDS011;7200;52.194;9.900;2022-10-31T06:11:40;0.03;;;0.03;;
14231;SDS011;7200;52.194;9.900;2022-10-31T06:14:05;0.00;;;0.00;;
14231;SDS011;7200;52.194;9.900;2022-10-31T06:16:31;0.27;;;0.27;;
14231;SDS011;7200;52.194;9.900;2022-10-31T06:18:56;0.00;;;0.00;;
14231;SDS011;7200;52.194;9.900;2022-10-31T06:21:22;0.10;;;0.10;;
14231;SDS011;7200;52.194;9.900;2022-10-31T06:23:47;0.93;;;0.93;;
14231;SDS011;7200;52.194;9.900;2022-10-31T06:26:12;1.80;;;1.40;;
14231;SDS011;7200;52.194;9.900;2022-10-31T06:28:38;0.00;;;0.00;;
14231;SDS011;7200;52.194;9.900;2022-10-31T06:31:03;3.07;;;0.73;;
14231;SDS011;7200;52.194;9.900;2022-10-31T06:33:28;0.57;;;0.57;;
14231;SDS011;7200;52.194;9.900;2022-10-31T06:35:54;1.07;;;1.07;;
14231;SDS011;7200;52.194;9.900;2022-10-31T06:38:19;0.50;;;0.33;;
14231;SDS011;7200;52.194;9.900;2022-10-31T06:40:44;0.00;;;0.00;;
14231;SDS011;7200;52.194;9.900;2022-10-31T06:43:10;0.00;;;0.00;;
14231;SDS011;7200;52.194;9.900;2022-10-31T06:45:36;1.23;;;1.13;;
14231;SDS011;7200;52.194;9.900;2022-10-31T06:48:01;0.00;;;0.00;;
14231;SDS011;7200;52.194;9.900;2022-10-31T06:50:27;0.00;;;0.00;;
14231;SDS011;7200;52.194;9.900;2022-10-31T06:52:53;0.00;;;0.00;;
14231;SDS011;7200;52.194;9.900;2022-10-31T06:55:20;0.00;;;0.00;;
14231;SDS011;7200;52.194;9.900;2022-10-31T06:57:54;0.00;;;0.00;;
14231;SDS011;7200;52.194;9.900;2022-10-31T07:00:20;0.33;;;0.33;;
14231;SDS011;7200;52.194;9.900;2022-10-31T07:02:53;0.00;;;0.00;;
14231;SDS011;7200;52.194;9.900;2022-10-31T07:05:25;1.13;;;1.13;;
14231;SDS011;7200;52.194;9.900;2022-10-31T07:07:52;0.10;;;0.10;;
14231;SDS011;7200;52.194;9.900;2022-10-31T07:10:19;0.10;;;0.10;;
14231;SDS011;7200;52.194;9.900;2022-10-31T07:12:44;11.20;;;2.00;;
14231;SDS011;7200;52.194;9.900;2022-10-31T07:15:09;0.20;;;0.20;;
14231;SDS011;7200;52.194;9.900;2022-10-31T07:17:35;1.13;;;1.13;;
14231;SDS011;7200;52.194;9.900;2022-10-31T07:20:00;0.40;;;0.40;;
14231;SDS011;7200;52.194;9.900;2022-10-31T07:22:31;0.00;;;0.00;;
14231;SDS011;7200;52.194;9.900;2022-10-31T07:24:57;0.40;;;0.40;;
14231;SDS011;7200;52.194;9.900;2022-10-31T07:27:22;0.20;;;0.20;;
14231;SDS011;7200;52.194;9.900;2022-10-31T07:29:48;0.10;;;0.10;;
14231;SDS011;7200;52.194;9.900;2022-10-31T07:32:13;0.00;;;0.00;;
14231;SDS011;7200;52.194;9.900;2022-10-31T07:34:38;0.47;;;0.47;;
14231;SDS011;7200;52.194;9.900;2022-10-31T07:37:03;0.00;;;0.00;;
14231;SDS011;7200;52.194;9.900;2022-10-31T07:39:29;0.00;;;0.00;;
14231;SDS011;7200;52.194;9.900;2022-10-31T07:41:54;0.00;;;0.00;;
14231;SDS011;7200;52.194;9.900;2022-10-31T07:44:22;0.00;;;0.00;;
14231;SDS011;7200;52.194;9.900;2022-10-31T07:46:48;0.07;;;0.07;;
14231;SDS011;7200;52.194;9.900;2022-10-31T07:49:13;0.30;;;0.30;;
14231;SDS011;7200;52.194;9.900;2022-10-31T07:51:38;0.10;;;0.10;;
14231;SDS011;7200;52.194;9.900;2022-10-31T07:54:03;0.00;;;0.00;;
14231;SDS011;7200;52.194;9.900;2022-10-31T07:56:29;0.00;;;0.00;;
14231;SDS011;7200;52.194;9.900;2022-10-31T07:58:54;3.03;;;2.93;;
14231;SDS011;7200;52.194;9.900;2022-10-31T08:01:19;0.00;;;0.00;;
14231;SDS011;7200;52.194;9.900;2022-10-31T08:03:44;1.17;;;1.17;;
14231;SDS011;7200;52.194;9.900;2022-10-31T08:06:10;1.20;;;1.20;;
14231;SDS011;7200;52.194;9.900;2022-10-31T08:08:35;0.37;;;0.37;;
14231;SDS011;7200;52.194;9.900;2022-10-31T08:11:00;1.33;;;1.33;;
14231;SDS011;7200;52.194;9.900;2022-10-31T08:13:26;0.57;;;0.57;;
14231;SDS011;7200;52.194;9.900;2022-10-31T08:15:51;0.87;;;0.87;;
14231;SDS011;7200;52.194;9.900;2022-10-31T08:18:16;0.40;;;0.40;;
14231;SDS011;7200;52.194;9.900;2022-10-31T08:20:42;0.10;;;0.10;;
14231;SDS011;7200;52.194;9.900;2022-10-31T08:23:09;0.00;;;0.00;;
14231;SDS011;7200;52.194;9.900;2022-10-31T08:25:35;0.47;;;0.47;;
14231;SDS011;7200;52.194;9.900;2022-10-31T08:28:01;0.00;;;0.00;;
14231;SDS011;7200;52.194;9.900;2022-10-31T08:30:30;0.20;;;0.20;;
14231;SDS011;7200;52.194;9.900;2022-10-31T08:33:08;0.00;;;0.00;;
14231;SDS011;7200;52.194;9.900;2022-10-31T08:35:35;0.10;;;0.10;;
14231;SDS011;7200;52.194;9.900;2022-10-31T08:38:01;0.10;;;0.10;;
14231;SDS011;7200;52.194;9.900;2022-10-31T08:40:27;0.20;;;0.20;;
14231;SDS011;7200;52.194;9.900;2022-10-31T08:43:00;0.00;;;0.00;;
14231;SDS011;7200;52.194;9.900;2022-10-31T08:45:31;0.00;;;0.00;;
14231;SDS011;7200;52.194;9.900;2022-10-31T08:47:58;2.40;;;1.80;;
14231;SDS011;7200;52.194;9.900;2022-10-31T08:50:25;0.00;;;0.00;;
14231;SDS011;7200;52.194;9.900;2022-10-31T08:52:51;0.10;;;0.10;;
14231;SDS011;7200;52.194;9.900;2022-10-31T08:55:16;0.00;;;0.00;;
14231;SDS011;7200;52.194;9.900;2022-10-31T08:57:41;1.53;;;1.53;;
14231;SDS011;7200;52.194;9.900;2022-10-31T09:00:07;0.60;;;0.30;;
14231;SDS011;7200;52.194;9.900;2022-10-31T09:02:33;0.30;;;0.30;;
14231;SDS011;7200;52.194;9.900;2022-10-31T09:04:58;0.43;;;0.43;;
14231;SDS011;7200;52.194;9.900;2022-10-31T09:07:23;0.10;;;0.10;;
14231;SDS011;7200;52.194;9.900;2022-10-31T09:09:48;0.30;;;0.30;;
14231;SDS011;7200;52.194;9.900;2022-10-31T09:12:14;1.30;;;0.83;;
14231;SDS011;7200;52.194;9.900;2022-10-31T09:14:39;0.00;;;0.00;;
14231;SDS011;7200;52.194;9.900;2022-10-31T09:17:04;0.10;;;0.10;;
14231;SDS011;7200;52.194;9.900;2022-10-31T09:19:29;0.00;;;0.00;;
14231;SDS011;7200;52.194;9.900;2022-10-31T09:21:55;0.17;;;0.17;;
14231;SDS011;7200;52.194;9.900;2022-10-31T09:24:21;0.00;;;0.00;;
14231;SDS011;7200;52.194;9.900;2022-10-31T09:26:46;0.10;;;0.10;;
14231;SDS011;7200;52.194;9.900;2022-10-31T09:29:12;4.10;;;0.83;;
14231;SDS011;7200;52.194;9.900;2022-10-31T09:31:37;0.17;;;0.17;;
14231;SDS011;7200;52.194;9.900;2022-10-31T09:34:02;3.33;;;3.17;;
14231;SDS011;7200;52.194;9.900;2022-10-31T09:36:28;0.50;;;0.50;;
14231;SDS011;7200;52.194;9.900;2022-10-31T09:38:53;1.97;;;0.60;;
14231;SDS011;7200;52.194;9.900;2022-10-31T09:44:18;0.50;;;0.50;;
14231;SDS011;7200;52.194;9.900;2022-10-31T09:47:07;1.33;;;1.23;;
14231;SDS011;7200;52.194;9.900;2022-10-31T09:52:29;0.63;;;0.63;;
14231;SDS011;7200;52.194;9.900;2022-10-31T09:54:58;0.00;;;0.00;;
14231;SDS011;7200;52.194;9.900;2022-10-31T09:57:31;0.20;;;0.20;;
14231;SDS011;7200;52.194;9.900;2022-10-31T10:00:00;0.00;;;0.00;;
14231;SDS011;7200;52.194;9.900;2022-10-31T10:02:36;0.10;;;0.10;;
14231;SDS011;7200;52.194;9.900;2022-10-31T10:05:11;1.60;;;1.60;;
14231;SDS011;7200;52.194;9.900;2022-10-31T10:10:29;0.37;;;0.37;;
14231;SDS011;7200;52.194;9.900;2022-10-31T10:15:49;0.20;;;0.20;;
14231;SDS011;7200;52.194;9.900;2022-10-31T10:18:30;2.43;;;0.73;;
14231;SDS011;7200;52.194;9.900;2022-10-31T10:23:45;3.87;;;2.27;;
14231;SDS011;7200;52.194;9.900;2022-10-31T10:26:21;0.57;;;0.57;;
14231;SDS011;7200;52.194;9.900;2022-10-31T10:28:50;0.00;;;0.00;;
14231;SDS011;7200;52.194;9.900;2022-10-31T10:31:20;0.83;;;0.83;;
14231;SDS011;7200;52.194;9.900;2022-10-31T10:37:00;1.07;;;1.07;;
14231;SDS011;7200;52.194;9.900;2022-10-31T10:39:30;0.73;;;0.73;;
14231;SDS011;7200;52.194;9.900;2022-10-31T10:42:11;0.20;;;0.20;;
14231;SDS011;7200;52.194;9.900;2022-10-31T10:44:57;8.47;;;1.40;;
14231;SDS011;7200;52.194;9.900;2022-10-31T10:47:44;0.00;;;0.00;;
14231;SDS011;7200;52.194;9.900;2022-10-31T10:50:21;0.10;;;0.10;;
14231;SDS011;7200;52.194;9.900;2022-10-31T10:53:02;0.30;;;0.30;;
14231;SDS011;7200;52.194;9.900;2022-10-31T10:58:53;0.10;;;0.10;;
14231;SDS011;7200;52.194;9.900;2022-10-31T11:01:21;0.20;;;0.20;;
14231;SDS011;7200;52.194;9.900;2022-10-31T11:03:47;0.07;;;0.07;;
14231;SDS011;7200;52.194;9.900;2022-10-31T11:06:16;2.57;;;0.53;;
14231;SDS011;7200;52.194;9.900;2022-10-31T11:08:46;0.10;;;0.10;;
14231;SDS011;7200;52.194;9.900;2022-10-31T11:13:49;0.00;;;0.00;;
14231;SDS011;7200;52.194;9.900;2022-10-31T11:18:51;0.00;;;0.00;;
14231;SDS011;7200;52.194;9.900;2022-10-31T11:21:25;0.50;;;0.27;;
14231;SDS011;7200;52.194;9.900;2022-10-31T11:26:36;0.00;;;0.00;;
14231;SDS011;7200;52.194;9.900;2022-10-31T11:29:04;0.00;;;0.00;;
14231;SDS011;7200;52.194;9.900;2022-10-31T11:31:30;0.67;;;0.40;;
14231;SDS011;7200;52.194;9.900;2022-10-31T11:33:59;0.17;;;0.17;;
14231;SDS011;7200;52.194;9.900;2022-10-31T11:36:27;0.47;;;0.47;;
14231;SDS011;7200;52.194;9.900;2022-10-31T11:38:55;0.27;;;0.13;;
14231;SDS011;7200;52.194;9.900;2022-10-31T11:41:27;3.83;;;0.57;;
14231;SDS011;7200;52.194;9.900;2022-10-31T11:43:58;0.53;;;0.53;;
14231;SDS011;7200;52.194;9.900;2022-10-31T11:49:03;0.00;;;0.00;;
14231;SDS011;7200;52.194;9.900;2022-10-31T11:51:36;0.30;;;0.30;;
14231;SDS011;7200;52.194;9.900;2022-10-31T11:54:02;1.50;;;0.13;;
14231;SDS011;7200;52.194;9.900;2022-10-31T11:56:39;0.00;;;0.00;;
14231;SDS011;7200;52.194;9.900;2022-10-31T11:59:14;0.40;;;0.40;;
14231;SDS011;7200;52.194;9.900;2022-10-31T12:01:46;3.53;;;1.33;;
14231;SDS011;7200;52.194;9.900;2022-10-31T12:04:13;1.50;;;1.40;;
14231;SDS011;7200;52.194;9.900;2022-10-31T12:06:39;1.13;;;1.03;;
14231;SDS011;7200;52.194;9.900;2022-10-31T12:09:17;0.30;;;0.30;;
14231;SDS011;7200;52.194;9.900;2022-10-31T12:15:31;0.67;;;0.67;;
14231;SDS011;7200;52.194;9.900;2022-10-31T12:20:59;0.10;;;0.10;;
14231;SDS011;7200;52.194;9.900;2022-10-31T12:23:25;1.57;;;1.47;;
14231;SDS011;7200;52.194;9.900;2022-10-31T12:26:22;0.73;;;0.40;;
14231;SDS011;7200;52.194;9.900;2022-10-31T12:31:46;1.27;;;1.27;;
14231;SDS011;7200;52.194;9.900;2022-10-31T12:56:23;4.97;;;4.53;;
14231;SDS011;7200;52.194;9.900;2022-10-31T12:59:06;0.63;;;0.20;;
14231;SDS011;7200;52.194;9.900;2022-10-31T13:01:42;0.43;;;0.43;;
14231;SDS011;7200;52.194;9.900;2022-10-31T13:04:19;0.17;;;0.17;;
14231;SDS011;7200;52.194;9.900;2022-10-31T13:06:59;1.13;;;1.10;;
14231;SDS011;7200;52.194;9.900;2022-10-31T13:09:31;0.40;;;0.40;;
14231;SDS011;7200;52.194;9.900;2022-10-31T13:12:02;0.00;;;0.00;;
14231;SDS011;7200;52.194;9.900;2022-10-31T13:14:34;0.90;;;0.90;;
14231;SDS011;7200;52.194;9.900;2022-10-31T13:17:03;1.70;;;1.33;;
14231;SDS011;7200;52.194;9.900;2022-10-31T13:19:37;1.77;;;1.67;;
14231;SDS011;7200;52.194;9.900;2022-10-31T13:22:08;2.67;;;0.60;;
14231;SDS011;7200;52.194;9.900;2022-10-31T13:24:54;1.90;;;1.00;;
14231;SDS011;7200;52.194;9.900;2022-10-31T13:27:25;0.97;;;0.67;;
14231;SDS011;7200;52.194;9.900;2022-10-31T13:30:01;2.53;;;1.60;;
14231;SDS011;7200;52.194;9.900;2022-10-31T13:32:36;0.37;;;0.37;;
14231;SDS011;7200;52.194;9.900;2022-10-31T13:35:14;1.93;;;0.93;;
14231;SDS011;7200;52.194;9.900;2022-10-31T13:37:46;1.80;;;1.20;;
14231;SDS011;7200;52.194;9.900;2022-10-31T13:40:30;0.50;;;0.50;;
14231;SDS011;7200;52.194;9.900;2022-10-31T13:43:11;0.87;;;0.87;;
14231;SDS011;7200;52.194;9.900;2022-10-31T13:45:51;3.97;;;0.50;;
14231;SDS011;7200;52.194;9.900;2022-10-31T13:48:20;6.03;;;2.80;;
14231;SDS011;7200;52.194;9.900;2022-10-31T13:51:03;0.67;;;0.67;;
14231;SDS011;7200;52.194;9.900;2022-10-31T13:56:29;0.33;;;0.33;;
14231;SDS011;7200;52.194;9.900;2022-10-31T13:59:05;0.00;;;0.00;;
14231;SDS011;7200;52.194;9.900;2022-10-31T14:02:18;0.77;;;0.77;;
14231;SDS011;7200;52.194;9.900;2022-10-31T14:04:48;2.30;;;2.00;;
14231;SDS011;7200;52.194;9.900;2022-10-31T14:07:17;0.37;;;0.17;;
14231;SDS011;7200;52.194;9.900;2022-10-31T14:17:50;1.40;;;0.37;;
14231;SDS011;7200;52.194;9.900;2022-10-31T14:20:40;0.03;;;0.03;;
14231;SDS011;7200;52.194;9.900;2022-10-31T14:28:48;4.53;;;1.10;;
14231;SDS011;7200;52.194;9.900;2022-10-31T14:39:36;0.23;;;0.23;;
14231;SDS011;7200;52.194;9.900;2022-10-31T14:42:09;1.70;;;1.40;;
14231;SDS011;7200;52.194;9.900;2022-10-31T14:51:09;1.03;;;1.00;;
14231;SDS011;7200;52.194;9.900;2022-10-31T14:53:49;6.50;;;3.07;;
14231;SDS011;7200;52.194;9.900;2022-10-31T14:56:26;0.30;;;0.30;;
14231;SDS011;7200;52.194;9.900;2022-10-31T14:58:55;0.53;;;0.53;;
14231;SDS011;7200;52.194;9.900;2022-10-31T15:01:25;0.20;;;0.20;;
14231;SDS011;7200;52.194;9.900;2022-10-31T15:03:52;0.10;;;0.10;;
14231;SDS011;7200;52.194;9.900;2022-10-31T15:06:23;0.00;;;0.00;;
14231;SDS011;7200;52.194;9.900;2022-10-31T15:08:51;0.50;;;0.50;;
14231;SDS011;7200;52.194;9.900;2022-10-31T15:13:48;0.83;;;0.83;;
14231;SDS011;7200;52.194;9.900;2022-10-31T15:19:02;0.63;;;0.63;;
14231;SDS011;7200;52.194;9.900;2022-10-31T15:21:29;1.27;;;1.17;;
14231;SDS011;7200;52.194;9.900;2022-10-31T15:23:57;0.73;;;0.73;;
14231;SDS011;7200;52.194;9.900;2022-10-31T15:26:25;0.97;;;0.97;;
14231;SDS011;7200;52.194;9.900;2022-10-31T15:31:27;1.33;;;1.30;;
14231;SDS011;7200;52.194;9.900;2022-10-31T15:33:52;0.67;;;0.50;;
14231;SDS011;7200;52.194;9.900;2022-10-31T15:36:23;0.63;;;0.63;;
14231;SDS011;7200;52.194;9.900;2022-10-31T15:38:50;2.70;;;2.50;;
14231;SDS011;7200;52.194;9.900;2022-10-31T15:44:12;0.00;;;0.00;;
14231;SDS011;7200;52.194;9.900;2022-10-31T15:46:51;18.20;;;1.23;;
14231;SDS011;7200;52.194;9.900;2022-10-31T15:50:03;1.23;;;1.23;;
14231;SDS011;7200;52.194;9.900;2022-10-31T15:52:18;0.00;;;0.00;;
14231;SDS011;7200;52.194;9.900;2022-10-31T15:55:00;1.20;;;1.13;;
14231;SDS011;7200;52.194;9.900;2022-10-31T15:57:28;6.37;;;3.13;;
14231;SDS011;7200;52.194;9.900;2022-10-31T15:59:55;1.17;;;1.07;;
14231;SDS011;7200;52.194;9.900;2022-10-31T16:02:21;1.27;;;1.17;;
14231;SDS011;7200;52.194;9.900;2022-10-31T16:04:53;1.63;;;1.53;;
14231;SDS011;7200;52.194;9.900;2022-10-31T16:07:20;1.73;;;1.63;;
14231;SDS011;7200;52.194;9.900;2022-10-31T16:12:18;0.53;;;0.53;;
14231;SDS011;7200;52.194;9.900;2022-10-31T16:14:44;0.23;;;0.23;;
14231;SDS011;7200;52.194;9.900;2022-10-31T16:17:11;0.00;;;0.00;;
14231;SDS011;7200;52.194;9.900;2022-10-31T16:19:44;0.00;;;0.00;;
14231;SDS011;7200;52.194;9.900;2022-10-31T16:22:23;0.30;;;0.30;;
14231;SDS011;7200;52.194;9.900;2022-10-31T16:24:55;1.57;;;1.07;;
14231;SDS011;7200;52.194;9.900;2022-10-31T16:27:27;0.00;;;0.00;;
14231;SDS011;7200;52.194;9.900;2022-10-31T16:29:58;0.22;;;0.22;;
14231;SDS011;7200;52.194;9.900;2022-10-31T16:32:36;0.40;;;0.40;;
14231;SDS011;7200;52.194;9.900;2022-10-31T16:35:17;0.20;;;0.20;;
14231;SDS011;7200;52.194;9.900;2022-10-31T16:37:48;0.03;;;0.03;;
14231;SDS011;7200;52.194;9.900;2022-10-31T16:40:14;55.10;;;5.30;;
14231;SDS011;7200;52.194;9.900;2022-10-31T16:42:40;0.00;;;0.00;;
14231;SDS011;7200;52.194;9.900;2022-10-31T16:45:06;4.00;;;0.90;;
14231;SDS011;7200;52.194;9.900;2022-10-31T16:47:33;0.93;;;0.93;;
14231;SDS011;7200;52.194;9.900;2022-10-31T16:49:58;1.70;;;1.63;;
14231;SDS011;7200;52.194;9.900;2022-10-31T16:52:25;0.10;;;0.10;;
14231;SDS011;7200;52.194;9.900;2022-10-31T16:54:50;0.37;;;0.37;;
14231;SDS011;7200;52.194;9.900;2022-10-31T16:57:17;0.30;;;0.30;;
14231;SDS011;7200;52.194;9.900;2022-10-31T16:59:48;0.10;;;0.10;;
14231;SDS011;7200;52.194;9.900;2022-10-31T17:02:18;0.27;;;0.27;;
14231;SDS011;7200;52.194;9.900;2022-10-31T17:04:44;0.50;;;0.50;;
14231;SDS011;7200;52.194;9.900;2022-10-31T17:07:09;0.00;;;0.00;;
14231;SDS011;7200;52.194;9.900;2022-10-31T17:09:35;0.10;;;0.10;;
14231;SDS011;7200;52.194;9.900;2022-10-31T17:12:00;1.37;;;1.33;;
14231;SDS011;7200;52.194;9.900;2022-10-31T17:14:26;0.47;;;0.47;;
14231;SDS011;7200;52.194;9.900;2022-10-31T17:16:51;2.00;;;1.90;;
14231;SDS011;7200;52.194;9.900;2022-10-31T17:19:17;0.67;;;0.67;;
14231;SDS011;7200;52.194;9.900;2022-10-31T17:21:43;0.00;;;0.00;;
14231;SDS011;7200;52.194;9.900;2022-10-31T17:24:11;0.43;;;0.30;;
14231;SDS011;7200;52.194;9.900;2022-10-31T17:26:38;5.27;;;1.33;;
14231;SDS011;7200;52.194;9.900;2022-10-31T17:29:04;0.00;;;0.00;;